Time;durP1;ratioP1;P1;durP2;ratioP2;P2;SDS_P1;SDS_P2;PMS_P1;PMS_P2;Temp;Humidity;BMP_temperature;BMP_pressure;BME280_temperature;BME280_humidity;BME280_pressure;Samples;Min_cycle;Max_cycle;Signal;HPM_P1;HPM_P2
2021/10/30 00:02:01;;;;;;;13.10;10.15;;;5.20;99.90;;;;;;5048072;28;20229;-72
2021/10/30 00:04:28;;;;;;;15.75;10.75;;;5.20;99.90;;;;;;5048633;28;20212;-72
2021/10/30 00:06:56;;;;;;;11.43;9.80;;;5.20;99.90;;;;;;5047778;28;20596;-72
2021/10/30 00:09:23;;;;;;;12.57;10.32;;;5.20;99.90;;;;;;5048753;28;20577;-72
2021/10/30 00:11:50;;;;;;;11.73;8.90;;;5.20;99.90;;;;;;5046332;28;20204;-72
2021/10/30 00:14:17;;;;;;;12.80;10.02;;;5.20;99.90;;;;;;5048487;28;20209;-72
2021/10/30 00:16:44;;;;;;;11.30;9.25;;;5.10;99.90;;;;;;5046873;28;20221;-72
2021/10/30 00:19:12;;;;;;;13.85;9.77;;;5.10;99.90;;;;;;5047998;28;20212;-72
2021/10/30 00:21:39;;;;;;;13.73;9.18;;;5.00;99.90;;;;;;5048103;28;20232;-72
2021/10/30 00:24:06;;;;;;;17.70;9.18;;;5.00;99.90;;;;;;5047776;28;20215;-72
2021/10/30 00:26:33;;;;;;;13.57;10.43;;;4.90;99.90;;;;;;5047161;28;20229;-72
2021/10/30 00:29:00;;;;;;;12.15;9.30;;;5.00;99.90;;;;;;5048041;28;20739;-72
2021/10/30 00:31:26;;;;;;;12.10;9.75;;;5.00;99.90;;;;;;5047913;28;20224;-72
2021/10/30 00:33:53;;;;;;;11.77;9.02;;;5.10;99.90;;;;;;5048024;28;20208;-72
2021/10/30 00:36:21;;;;;;;12.20;8.70;;;5.00;99.90;;;;;;5047469;28;20221;-72
2021/10/30 00:38:48;;;;;;;11.52;8.75;;;5.00;99.90;;;;;;5047517;28;20605;-72
2021/10/30 00:41:15;;;;;;;9.70;8.68;;;5.00;99.90;;;;;;5047899;28;20243;-72
2021/10/30 00:43:42;;;;;;;12.88;9.20;;;5.00;99.90;;;;;;5047710;28;20299;-72
2021/10/30 00:46:09;;;;;;;11.68;9.50;;;4.90;99.90;;;;;;5047012;28;20217;-72
2021/10/30 00:48:36;;;;;;;13.02;8.50;;;4.90;99.90;;;;;;5047869;28;20205;-72
2021/10/30 00:51:05;;;;;;;13.07;9.63;;;4.80;99.90;;;;;;5047389;28;20610;-72
2021/10/30 00:53:34;;;;;;;8.55;7.45;;;4.80;99.90;;;;;;5047483;28;20547;-72
2021/10/30 00:56:02;;;;;;;9.75;8.25;;;4.60;99.90;;;;;;5047189;28;20591;-72
2021/10/30 00:58:33;;;;;;;12.73;9.48;;;4.60;99.90;;;;;;5041832;28;20271;-72
2021/10/30 01:01:00;;;;;;;10.57;9.25;;;4.70;99.90;;;;;;5204010;22;20232;-69
2021/10/30 01:03:27;;;;;;;12.80;9.55;;;4.60;99.90;;;;;;5049050;28;20705;-69
2021/10/30 01:05:54;;;;;;;12.68;8.95;;;4.60;99.90;;;;;;5048960;28;20312;-70
2021/10/30 01:08:28;;;;;;;8.98;8.07;;;4.60;99.90;;;;;;5028645;28;20202;-69
2021/10/30 01:10:56;;;;;;;10.57;8.27;;;4.60;99.90;;;;;;5022773;28;20679;-69
2021/10/30 01:13:24;;;;;;;11.43;8.43;;;4.60;99.90;;;;;;5030163;28;20205;-69
2021/10/30 01:15:50;;;;;;;11.30;8.35;;;4.60;99.90;;;;;;5029541;28;20244;-69
2021/10/30 01:18:17;;;;;;;10.10;8.23;;;4.60;99.90;;;;;;5030472;28;20209;-70
2021/10/30 01:20:46;;;;;;;9.27;7.60;;;4.50;99.90;;;;;;5030182;28;20688;-70
2021/10/30 01:23:12;;;;;;;9.43;8.35;;;4.40;99.90;;;;;;5030471;28;20202;-70
2021/10/30 01:25:40;;;;;;;11.85;8.73;;;4.40;99.90;;;;;;5029894;28;20722;-70
2021/10/30 01:28:06;;;;;;;9.23;7.82;;;4.50;99.90;;;;;;5030357;28;20210;-70
2021/10/30 01:30:33;;;;;;;10.43;8.00;;;4.50;99.90;;;;;;5030538;28;20202;-70
2021/10/30 01:33:03;;;;;;;9.13;7.28;;;4.40;99.90;;;;;;5030845;28;20202;-70
2021/10/30 01:35:32;;;;;;;11.18;7.88;;;4.40;99.90;;;;;;5030314;28;20225;-70
2021/10/30 01:38:01;;;;;;;9.25;8.25;;;4.40;99.90;;;;;;5030074;28;20198;-70
2021/10/30 01:40:30;;;;;;;8.65;7.32;;;4.40;99.90;;;;;;5030456;28;20206;-69
2021/10/30 01:43:00;;;;;;;9.98;7.55;;;4.40;99.90;;;;;;5030383;28;20723;-70
2021/10/30 01:45:27;;;;;;;9.48;7.85;;;4.40;99.90;;;;;;5030631;28;20227;-69
2021/10/30 01:47:55;;;;;;;7.22;6.53;;;4.30;99.90;;;;;;5029542;28;20244;-69
2021/10/30 01:50:22;;;;;;;13.77;7.68;;;4.30;99.90;;;;;;5030175;28;20237;-69
2021/10/30 01:52:49;;;;;;;8.88;7.50;;;4.20;99.90;;;;;;5033622;28;20296;-69
2021/10/30 01:55:19;;;;;;;10.43;8.35;;;4.20;99.90;;;;;;5033734;28;20206;-69
2021/10/30 01:57:46;;;;;;;9.75;7.38;;;4.20;99.90;;;;;;5033658;28;20197;-69
2021/10/30 02:00:14;;;;;;;8.23;6.93;;;4.20;99.90;;;;;;5033968;28;20216;-69
2021/10/30 02:02:41;;;;;;;9.50;7.60;;;4.20;99.90;;;;;;5033894;28;20218;-69
2021/10/30 02:05:09;;;;;;;9.13;7.40;;;4.20;99.90;;;;;;5033745;28;20662;-69
2021/10/30 02:07:35;;;;;;;10.57;7.50;;;4.20;99.90;;;;;;5033448;28;20205;-69
2021/10/30 02:10:03;;;;;;;9.43;7.50;;;4.10;99.90;;;;;;5033942;28;20206;-69
2021/10/30 02:12:31;;;;;;;8.93;7.30;;;4.20;99.90;;;;;;5033873;28;20284;-69
2021/10/30 02:14:58;;;;;;;8.93;6.72;;;4.10;99.90;;;;;;5033708;28;20202;-69
2021/10/30 02:17:25;;;;;;;12.07;7.90;;;4.20;99.90;;;;;;5033421;28;20575;-69
2021/10/30 02:19:51;;;;;;;9.40;7.65;;;4.20;99.90;;;;;;5033563;28;20213;-69
2021/10/30 02:22:18;;;;;;;13.10;8.68;;;4.20;99.90;;;;;;5033665;28;20217;-69
2021/10/30 02:24:45;;;;;;;8.90;8.00;;;4.20;99.90;;;;;;5033501;28;20574;-69
2021/10/30 02:27:11;;;;;;;8.55;7.65;;;4.20;99.90;;;;;;5033068;28;20225;-69
2021/10/30 02:29:40;;;;;;;10.45;8.15;;;4.20;99.90;;;;;;5033731;28;20228;-69
2021/10/30 02:32:07;;;;;;;9.25;7.47;;;4.20;99.90;;;;;;5033584;28;20205;-69
2021/10/30 02:34:34;;;;;;;12.82;7.85;;;4.20;99.90;;;;;;5033503;28;20572;-69
2021/10/30 02:37:01;;;;;;;9.35;7.70;;;4.20;99.90;;;;;;5033368;28;20221;-69
2021/10/30 02:39:28;;;;;;;12.50;8.75;;;4.20;99.90;;;;;;5033440;28;20213;-69
2021/10/30 02:41:55;;;;;;;11.43;7.43;;;4.10;99.90;;;;;;5033149;28;20225;-69
2021/10/30 02:44:21;;;;;;;9.52;7.35;;;4.10;99.90;;;;;;5033241;28;20201;-69
2021/10/30 02:46:50;;;;;;;7.63;6.93;;;4.00;99.90;;;;;;5032732;28;20222;-69
2021/10/30 02:49:17;;;;;;;8.13;7.07;;;4.00;99.90;;;;;;5033180;28;20230;-69
2021/10/30 02:51:44;;;;;;;8.88;7.25;;;3.90;99.90;;;;;;5033103;28;20229;-69
2021/10/30 02:54:11;;;;;;;9.18;7.32;;;3.90;99.90;;;;;;5032955;28;20197;-69
2021/10/30 02:56:37;;;;;;;7.63;6.85;;;3.90;99.90;;;;;;5032467;28;20233;-69
2021/10/30 02:59:04;;;;;;;9.45;7.78;;;3.90;99.90;;;;;;5033210;28;20205;-69
2021/10/30 03:01:31;;;;;;;7.88;6.90;;;3.90;99.90;;;;;;5032463;28;20233;-69
2021/10/30 03:03:59;;;;;;;8.15;6.75;;;3.90;99.90;;;;;;5032626;28;20206;-69
2021/10/30 03:06:26;;;;;;;10.82;7.15;;;3.90;99.90;;;;;;5032644;28;20705;-69
2021/10/30 03:08:53;;;;;;;7.25;6.55;;;3.80;99.90;;;;;;5032796;28;20685;-69
2021/10/30 03:11:20;;;;;;;7.75;6.32;;;3.80;99.90;;;;;;5032866;28;20202;-69
2021/10/30 03:13:47;;;;;;;6.95;6.13;;;3.80;99.90;;;;;;5032570;28;20202;-69
2021/10/30 03:16:14;;;;;;;7.35;5.28;;;3.80;99.90;;;;;;5032279;28;20591;-69
2021/10/30 03:18:40;;;;;;;7.15;6.45;;;3.80;99.90;;;;;;5032503;28;20209;-69
2021/10/30 03:21:09;;;;;;;8.25;6.75;;;3.80;99.90;;;;;;5032840;28;20204;-69
2021/10/30 03:23:35;;;;;;;7.47;6.30;;;3.70;99.90;;;;;;5032949;28;20222;-69
2021/10/30 03:26:02;;;;;;;8.55;6.63;;;3.70;99.90;;;;;;5031867;28;20228;-70
2021/10/30 03:28:29;;;;;;;6.57;5.97;;;3.70;99.90;;;;;;5033054;28;20209;-69
2021/10/30 03:30:56;;;;;;;8.05;6.40;;;3.70;99.90;;;;;;5032378;28;20204;-70
2021/10/30 03:33:23;;;;;;;7.13;6.40;;;3.60;99.90;;;;;;5032283;28;20216;-69
2021/10/30 03:35:50;;;;;;;9.23;6.88;;;3.60;99.90;;;;;;5031767;28;20272;-70
2021/10/30 03:38:18;;;;;;;9.48;6.88;;;3.50;99.90;;;;;;5032167;28;20206;-69
2021/10/30 03:40:45;;;;;;;7.80;7.00;;;3.60;99.90;;;;;;5032823;28;20202;-70
2021/10/30 03:43:12;;;;;;;8.77;6.93;;;3.60;99.90;;;;;;5032011;28;20715;-69
2021/10/30 03:45:38;;;;;;;9.15;6.32;;;3.70;99.90;;;;;;5032506;28;20218;-69
2021/10/30 03:48:07;;;;;;;9.10;6.90;;;3.70;99.90;;;;;;5031909;28;20201;-69
2021/10/30 03:50:35;;;;;;;9.73;7.25;;;3.70;99.90;;;;;;5031943;28;20206;-69
2021/10/30 03:53:01;;;;;;;8.10;6.28;;;3.70;99.90;;;;;;5032014;28;20556;-69
2021/10/30 03:55:30;;;;;;;7.95;7.13;;;3.70;99.90;;;;;;5031884;28;20229;-69
2021/10/30 03:57:56;;;;;;;7.28;6.50;;;3.70;99.90;;;;;;5031681;28;20212;-69
2021/10/30 04:00:23;;;;;;;10.85;7.47;;;3.70;99.90;;;;;;5031928;28;20209;-69
2021/10/30 04:02:50;;;;;;;10.35;7.07;;;3.70;99.90;;;;;;5032661;28;20610;-69
2021/10/30 04:05:17;;;;;;;10.40;8.25;;;3.80;99.90;;;;;;5032108;28;20221;-69
2021/10/30 04:07:44;;;;;;;8.05;7.25;;;4.00;99.90;;;;;;5031125;28;20205;-69
2021/10/30 04:10:11;;;;;;;9.43;7.57;;;4.10;99.90;;;;;;5031843;28;20573;-69
2021/10/30 04:12:40;;;;;;;11.25;8.30;;;4.20;99.90;;;;;;5031514;28;20193;-69
2021/10/30 04:15:08;;;;;;;10.15;8.23;;;4.30;99.90;;;;;;5031295;28;20237;-69
2021/10/30 04:17:35;;;;;;;10.45;7.72;;;4.20;99.90;;;;;;5031072;28;20202;-69
2021/10/30 04:20:01;;;;;;;9.27;7.07;;;4.10;99.90;;;;;;5031515;28;20260;-69
2021/10/30 04:22:28;;;;;;;8.70;7.50;;;4.00;99.90;;;;;;5031752;28;20225;-69
2021/10/30 04:24:57;;;;;;;7.45;6.60;;;3.90;99.90;;;;;;5031771;28;20212;-68
2021/10/30 04:27:24;;;;;;;9.90;7.63;;;3.90;99.90;;;;;;5031152;28;20205;-69
2021/10/30 04:29:52;;;;;;;8.35;6.93;;;3.80;99.90;;;;;;5031207;28;20220;-69
2021/10/30 04:32:18;;;;;;;9.00;7.95;;;3.70;99.90;;;;;;5030983;28;20208;-69
2021/10/30 04:34:47;;;;;;;8.55;7.57;;;3.70;99.90;;;;;;5030538;28;20617;-69
2021/10/30 04:37:16;;;;;;;9.70;7.65;;;3.70;99.90;;;;;;5030144;28;20218;-69
2021/10/30 04:39:43;;;;;;;9.38;6.88;;;3.60;99.90;;;;;;5030429;28;20244;-69
2021/10/30 04:42:10;;;;;;;7.90;6.63;;;3.60;99.90;;;;;;5030676;28;20226;-69
2021/10/30 04:44:37;;;;;;;8.55;7.00;;;3.60;99.90;;;;;;5030262;28;20538;-69
2021/10/30 04:47:06;;;;;;;8.32;7.28;;;3.50;99.90;;;;;;5030112;28;20222;-69
2021/10/30 04:49:33;;;;;;;8.40;7.25;;;3.60;99.90;;;;;;5030773;28;20699;-69
2021/10/30 04:52:00;;;;;;;9.23;7.40;;;3.50;99.90;;;;;;5030420;28;20202;-69
2021/10/30 04:54:27;;;;;;;9.00;6.45;;;3.50;99.90;;;;;;5030538;28;20216;-69
2021/10/30 04:56:54;;;;;;;7.90;6.50;;;3.50;99.90;;;;;;5029677;28;20656;-69
2021/10/30 04:59:20;;;;;;;7.07;5.70;;;3.40;99.90;;;;;;5030105;28;20205;-69
2021/10/30 05:01:47;;;;;;;8.32;7.45;;;3.30;99.90;;;;;;5030438;28;20201;-69
2021/10/30 05:04:15;;;;;;;8.27;6.85;;;3.30;99.90;;;;;;5030729;28;20202;-68
2021/10/30 05:06:42;;;;;;;9.80;7.03;;;3.30;99.90;;;;;;5030312;28;20218;-69
2021/10/30 05:09:09;;;;;;;7.68;6.90;;;3.30;99.90;;;;;;5030870;28;20202;-68
2021/10/30 05:11:36;;;;;;;9.90;8.15;;;3.30;99.90;;;;;;5030802;28;20590;-69
2021/10/30 05:14:03;;;;;;;10.13;8.57;;;3.40;99.90;;;;;;5030587;28;20589;-68
2021/10/30 05:16:29;;;;;;;9.63;7.85;;;3.40;99.90;;;;;;5030329;28;20226;-69
2021/10/30 05:18:56;;;;;;;11.75;8.85;;;3.50;99.90;;;;;;5030434;28;20213;-69
2021/10/30 05:21:24;;;;;;;10.60;8.20;;;3.40;99.90;;;;;;5030731;28;20229;-69
2021/10/30 05:23:51;;;;;;;11.13;8.45;;;3.40;99.90;;;;;;5030314;28;20237;-69
2021/10/30 05:26:18;;;;;;;9.60;8.23;;;3.40;99.90;;;;;;5032145;28;20226;-69
2021/10/30 05:28:45;;;;;;;9.68;7.28;;;3.40;99.90;;;;;;5034222;28;20213;-69
2021/10/30 05:31:12;;;;;;;8.73;7.82;;;3.40;99.90;;;;;;5034666;28;20201;-69
2021/10/30 05:33:39;;;;;;;11.05;8.50;;;3.30;99.90;;;;;;5034204;28;20222;-69
2021/10/30 05:36:09;;;;;;;13.77;8.88;;;3.30;99.90;;;;;;5034087;28;20225;-69
2021/10/30 05:38:43;;;;;;;11.10;8.25;;;3.30;99.90;;;;;;5034252;28;20260;-69
2021/10/30 05:41:10;;;;;;;10.07;8.43;;;3.30;99.90;;;;;;5034531;28;20206;-69
2021/10/30 05:43:37;;;;;;;10.05;7.18;;;3.20;99.90;;;;;;5034103;28;20236;-69
2021/10/30 05:46:06;;;;;;;10.75;8.40;;;3.30;99.90;;;;;;5033575;28;20310;-69
2021/10/30 05:48:33;;;;;;;11.43;8.55;;;3.30;99.90;;;;;;5034162;28;20241;-69
2021/10/30 05:51:00;;;;;;;9.23;7.65;;;3.20;99.90;;;;;;5015235;28;20202;-69
2021/10/30 05:53:27;;;;;;;11.05;7.90;;;3.20;99.90;;;;;;5014385;28;20198;-69
2021/10/30 05:55:55;;;;;;;14.40;8.18;;;3.20;99.90;;;;;;5013539;28;20240;-69
2021/10/30 05:58:22;;;;;;;10.05;7.75;;;3.20;99.90;;;;;;5014367;28;20621;-68
2021/10/30 06:00:48;;;;;;;9.20;7.95;;;3.20;99.90;;;;;;5014080;28;20301;-68
2021/10/30 06:03:15;;;;;;;10.93;8.25;;;3.10;99.90;;;;;;5014302;28;20229;-69
2021/10/30 06:05:42;;;;;;;9.85;8.82;;;3.10;99.90;;;;;;5013783;28;20717;-69
2021/10/30 06:08:09;;;;;;;9.38;8.10;;;3.20;99.90;;;;;;5014380;28;20574;-69
2021/10/30 06:10:35;;;;;;;11.13;8.23;;;3.10;99.90;;;;;;5014094;28;20206;-69
2021/10/30 06:13:04;;;;;;;11.93;8.07;;;3.10;99.90;;;;;;5013828;28;20222;-69
2021/10/30 06:15:30;;;;;;;10.52;8.35;;;3.00;99.90;;;;;;5014036;28;20230;-69
2021/10/30 06:17:57;;;;;;;11.68;8.45;;;3.00;99.90;;;;;;5013232;28;20705;-69
2021/10/30 06:20:24;;;;;;;10.18;8.20;;;3.00;99.90;;;;;;5013796;28;20202;-69
2021/10/30 06:22:50;;;;;;;15.15;8.32;;;3.00;99.90;;;;;;5013566;28;20202;-69
2021/10/30 06:25:17;;;;;;;9.15;7.53;;;3.00;99.90;;;;;;5013832;28;20578;-69
2021/10/30 06:27:44;;;;;;;11.82;7.93;;;3.00;99.90;;;;;;5013135;28;20203;-69
2021/10/30 06:30:13;;;;;;;9.05;8.02;;;3.00;99.90;;;;;;5013814;28;20216;-69
2021/10/30 06:32:41;;;;;;;12.13;8.18;;;3.00;99.90;;;;;;5013380;28;20309;-69
2021/10/30 06:35:09;;;;;;;10.48;8.32;;;3.00;99.90;;;;;;5012713;28;20682;-69
2021/10/30 06:37:38;;;;;;;15.00;9.18;;;3.00;99.90;;;;;;5009443;28;20297;-69
2021/10/30 06:40:07;;;;;;;10.82;8.90;;;3.00;99.90;;;;;;5011470;28;20301;-69
2021/10/30 06:42:33;;;;;;;9.93;8.80;;;3.00;99.90;;;;;;5012224;28;20213;-69
2021/10/30 06:45:00;;;;;;;10.98;8.63;;;3.10;99.90;;;;;;5012851;28;20206;-69
2021/10/30 06:47:28;;;;;;;13.75;8.68;;;3.10;99.90;;;;;;5012992;28;20605;-68
2021/10/30 06:49:57;;;;;;;10.52;7.60;;;3.10;99.90;;;;;;5013541;28;20237;-69
2021/10/30 06:52:24;;;;;;;10.18;8.07;;;3.20;99.90;;;;;;5013251;28;20406;-69
2021/10/30 06:54:51;;;;;;;11.43;10.10;;;3.30;99.90;;;;;;5011865;28;20471;-69
2021/10/30 06:57:18;;;;;;;11.35;9.00;;;3.40;99.90;;;;;;5012864;28;20226;-69
2021/10/30 06:59:45;;;;;;;11.65;8.95;;;3.40;99.90;;;;;;5036964;23;20210;-93
2021/10/30 07:02:12;;;;;;;12.95;9.60;;;3.60;99.90;;;;;;5042742;28;20202;-94
2021/10/30 07:04:40;;;;;;;11.15;8.70;;;3.70;99.90;;;;;;5046316;28;20227;-93
2021/10/30 07:07:07;;;;;;;11.90;10.20;;;3.80;99.90;;;;;;5041352;28;20292;-94
2021/10/30 07:09:34;;;;;;;10.02;8.15;;;3.90;99.90;;;;;;5049962;28;20186;-94
2021/10/30 07:12:01;;;;;;;13.93;9.35;;;4.00;99.90;;;;;;5049158;22;20241;-70
2021/10/30 07:14:27;;;;;;;12.43;9.48;;;4.20;99.90;;;;;;5041547;28;20213;-71
2021/10/30 07:16:54;;;;;;;9.95;8.90;;;4.40;99.90;;;;;;5051594;28;20221;-73
2021/10/30 07:19:21;;;;;;;12.43;9.35;;;4.70;99.90;;;;;;5052480;28;20223;-70
2021/10/30 07:21:49;;;;;;;10.57;8.90;;;5.10;99.90;;;;;;5052163;28;20201;-70
2021/10/30 07:24:16;;;;;;;9.57;8.20;;;5.60;99.90;;;;;;5052271;28;20197;-70
2021/10/30 07:26:42;;;;;;;10.40;8.90;;;6.00;99.90;;;;;;5051763;28;20221;-70
2021/10/30 07:29:09;;;;;;;9.38;8.23;;;6.30;99.90;;;;;;5052256;28;20204;-70
2021/10/30 07:31:36;;;;;;;10.32;8.02;;;6.60;99.90;;;;;;5052462;28;20248;-70
2021/10/30 07:34:03;;;;;;;10.60;8.38;;;6.70;99.90;;;;;;5051792;28;20229;-71
2021/10/30 07:36:30;;;;;;;10.93;8.52;;;6.80;99.90;;;;;;5051803;28;20582;-70
2021/10/30 07:38:58;;;;;;;9.10;8.20;;;6.80;99.90;;;;;;5051919;28;20208;-70
2021/10/30 07:41:24;;;;;;;11.88;8.35;;;6.80;99.90;;;;;;5051871;28;20201;-71
2021/10/30 07:43:54;;;;;;;11.30;8.52;;;6.80;99.90;;;;;;5047158;28;20600;-70
2021/10/30 07:46:21;;;;;;;9.70;8.50;;;6.80;99.90;;;;;;5051383;28;20278;-71
2021/10/30 07:48:48;;;;;;;9.73;8.75;;;6.80;99.90;;;;;;5051801;28;20201;-70
2021/10/30 07:51:15;;;;;;;11.73;9.30;;;6.80;99.90;;;;;;5051744;28;20207;-71
2021/10/30 07:53:42;;;;;;;12.15;8.75;;;6.80;99.90;;;;;;5051661;28;20227;-71
2021/10/30 07:56:11;;;;;;;13.40;10.10;;;6.80;99.90;;;;;;5051062;28;20221;-71
2021/10/30 07:58:40;;;;;;;11.57;9.40;;;6.70;99.90;;;;;;5051751;28;20205;-71
2021/10/30 08:01:07;;;;;;;12.32;10.10;;;6.70;99.90;;;;;;5051370;28;20222;-70
2021/10/30 08:03:34;;;;;;;9.98;8.98;;;6.80;99.90;;;;;;5051436;28;20208;-70
2021/10/30 08:06:01;;;;;;;14.23;9.90;;;6.90;99.90;;;;;;5050414;28;20229;-70
2021/10/30 08:08:28;;;;;;;12.25;9.90;;;6.90;99.90;;;;;;5051385;28;20212;-70
2021/10/30 08:10:54;;;;;;;10.85;9.25;;;7.00;99.90;;;;;;5050717;28;20196;-70
2021/10/30 08:13:23;;;;;;;12.18;9.55;;;7.10;99.90;;;;;;5051203;28;20213;-70
2021/10/30 08:15:50;;;;;;;11.20;9.88;;;7.30;99.90;;;;;;5050333;28;20259;-70
2021/10/30 08:18:17;;;;;;;13.48;10.30;;;7.50;99.90;;;;;;5051610;28;20240;-70
2021/10/30 08:20:43;;;;;;;12.07;9.40;;;7.70;99.90;;;;;;5051034;28;20618;-71
2021/10/30 08:23:10;;;;;;;11.75;8.98;;;7.80;99.90;;;;;;5050914;28;20210;-70
2021/10/30 08:25:37;;;;;;;13.13;10.40;;;7.90;99.90;;;;;;5050771;28;20708;-71
2021/10/30 08:28:04;;;;;;;15.60;11.88;;;8.00;99.90;;;;;;5050589;28;20216;-70
2021/10/30 08:30:32;;;;;;;12.85;10.43;;;8.10;99.90;;;;;;5044445;28;20204;-70
2021/10/30 08:32:59;;;;;;;12.02;10.85;;;8.10;99.90;;;;;;5030862;28;20212;-71
2021/10/30 08:35:26;;;;;;;11.45;9.32;;;8.10;99.90;;;;;;5030972;28;20222;-70
2021/10/30 08:37:53;;;;;;;12.65;10.55;;;8.10;99.90;;;;;;5030161;28;20255;-70
2021/10/30 08:40:20;;;;;;;10.82;9.60;;;8.10;99.90;;;;;;5031527;28;20214;-71
2021/10/30 08:42:48;;;;;;;12.65;10.00;;;8.20;99.90;;;;;;5033780;28;20666;-71
2021/10/30 08:45:15;;;;;;;13.30;10.43;;;8.20;99.90;;;;;;5030798;28;20200;-70
2021/10/30 08:47:43;;;;;;;10.93;9.65;;;8.30;99.90;;;;;;5048936;28;20571;-71
2021/10/30 08:50:10;;;;;;;11.10;9.13;;;8.20;99.90;;;;;;5051199;28;20207;-74
2021/10/30 08:52:38;;;;;;;11.45;9.60;;;8.20;99.90;;;;;;5050875;28;20232;-74
2021/10/30 08:55:09;;;;;;;13.05;10.25;;;8.20;99.90;;;;;;5030198;28;20217;-71
2021/10/30 08:57:36;;;;;;;15.73;10.27;;;8.30;99.90;;;;;;5029988;28;20202;-74
2021/10/30 09:00:17;;;;;;;13.15;10.45;;;8.30;99.90;;;;;;5029085;28;20771;-72
2021/10/30 09:02:45;;;;;;;13.55;11.07;;;8.40;99.90;;;;;;5029851;28;20208;-70
2021/10/30 09:05:15;;;;;;;13.15;9.75;;;8.40;99.90;;;;;;5029879;28;20218;-70
2021/10/30 09:07:43;;;;;;;12.93;10.43;;;8.40;99.90;;;;;;5029345;28;20212;-74
2021/10/30 09:10:13;;;;;;;13.77;10.20;;;8.40;99.90;;;;;;5029954;28;20202;-74
2021/10/30 09:12:48;;;;;;;14.68;10.15;;;8.40;99.90;;;;;;5029586;28;20221;-74
2021/10/30 09:15:15;;;;;;;11.52;9.80;;;8.40;99.90;;;;;;5029731;28;20225;-73
2021/10/30 09:17:42;;;;;;;14.80;11.38;;;8.30;99.90;;;;;;5025916;28;20202;-70
2021/10/30 09:20:12;;;;;;;12.20;10.73;;;8.40;99.90;;;;;;5029465;28;20237;-70
2021/10/30 09:22:38;;;;;;;12.43;9.85;;;8.30;99.90;;;;;;5033993;28;20216;-73
2021/10/30 09:25:08;;;;;;;10.93;9.73;;;8.40;99.90;;;;;;5048186;28;20197;-73
2021/10/30 09:27:54;;;;;;;13.02;10.38;;;8.40;99.90;;;;;;5049478;28;20551;-71
2021/10/30 09:30:23;;;;;;;11.95;10.70;;;8.40;99.90;;;;;;5038159;28;20208;-70
2021/10/30 09:32:52;;;;;;;11.32;9.43;;;8.40;99.90;;;;;;5029218;28;20229;-71
2021/10/30 09:35:41;;;;;;;13.45;10.38;;;8.40;99.90;;;;;;5028835;28;20245;-72
2021/10/30 09:38:11;;;;;;;10.20;9.10;;;8.40;99.90;;;;;;5028402;28;20206;-72
2021/10/30 09:40:38;;;;;;;11.90;9.45;;;8.40;99.90;;;;;;5007728;28;20206;-72
2021/10/30 09:43:07;;;;;;;13.27;10.05;;;8.40;99.90;;;;;;5020057;28;20201;-71
2021/10/30 09:45:37;;;;;;;10.70;9.60;;;8.40;99.90;;;;;;5047208;28;20278;-71
2021/10/30 09:48:05;;;;;;;10.88;9.65;;;8.40;99.90;;;;;;5046678;28;20251;-72
2021/10/30 09:50:32;;;;;;;11.52;9.73;;;8.40;99.90;;;;;;5049958;28;20287;-71
2021/10/30 09:53:22;;;;;;;11.32;8.95;;;8.40;99.90;;;;;;5049346;28;20213;-71
2021/10/30 09:55:52;;;;;;;13.02;10.93;;;8.40;99.90;;;;;;5048351;28;20221;-71
2021/10/30 09:58:31;;;;;;;12.07;10.88;;;8.50;99.90;;;;;;5049312;28;20572;-72
2021/10/30 10:01:00;;;;;;;14.15;11.20;;;8.50;99.90;;;;;;5048767;28;20236;-71
2021/10/30 10:03:29;;;;;;;10.85;9.75;;;8.50;99.90;;;;;;5049186;28;20205;-71
2021/10/30 10:05:57;;;;;;;11.05;9.32;;;8.50;99.90;;;;;;5048206;28;20661;-71
2021/10/30 10:08:25;;;;;;;11.50;10.40;;;8.50;99.90;;;;;;5049257;28;20205;-71
2021/10/30 10:10:54;;;;;;;14.27;9.98;;;8.60;99.90;;;;;;5048863;28;20236;-71
2021/10/30 10:13:22;;;;;;;14.05;11.70;;;8.60;99.90;;;;;;5051601;28;20296;-71
2021/10/30 10:15:50;;;;;;;14.02;10.43;;;8.60;99.90;;;;;;5051396;28;20217;-71
2021/10/30 10:18:17;;;;;;;13.07;9.60;;;8.60;99.90;;;;;;5052965;28;20216;-71
2021/10/30 10:20:44;;;;;;;14.07;10.40;;;8.60;99.90;;;;;;5044135;28;20205;-71
2021/10/30 10:23:12;;;;;;;13.50;10.18;;;8.60;99.90;;;;;;5032637;28;20206;-71
2021/10/30 10:25:49;;;;;;;13.57;10.90;;;8.70;99.90;;;;;;5031984;28;20586;-71
2021/10/30 10:28:26;;;;;;;14.13;11.25;;;8.70;99.90;;;;;;5031511;28;20540;-71
2021/10/30 10:30:55;;;;;;;11.23;10.15;;;8.70;99.90;;;;;;5031434;28;20719;-71
2021/10/30 10:33:23;;;;;;;12.15;10.65;;;8.70;99.90;;;;;;5032469;28;20629;-72
2021/10/30 10:36:25;;;;;;;13.15;10.98;;;8.80;99.90;;;;;;5031079;28;20230;-70
2021/10/30 10:39:24;;;;;;;17.08;10.65;;;8.80;99.90;;;;;;5031860;28;20212;-73
2021/10/30 10:41:57;;;;;;;13.05;10.45;;;8.90;99.90;;;;;;5032273;28;20216;-74
2021/10/30 10:44:57;;;;;;;13.95;10.85;;;8.90;99.90;;;;;;5032125;28;20233;-71
2021/10/30 10:47:58;;;;;;;13.40;10.52;;;9.00;99.90;;;;;;5031748;28;20212;-71
2021/10/30 10:50:29;;;;;;;12.43;10.20;;;9.00;99.90;;;;;;5027361;28;20201;-71
2021/10/30 10:53:27;;;;;;;12.75;10.27;;;9.10;99.90;;;;;;5032510;28;20202;-71
2021/10/30 10:56:13;;;;;;;11.82;10.55;;;9.10;99.90;;;;;;5030462;28;20227;-74
2021/10/30 10:59:15;;;;;;;11.05;9.63;;;9.20;99.90;;;;;;5031731;28;20208;-74
2021/10/30 11:02:21;;;;;;;19.17;13.38;;;9.10;99.90;;;;;;5031305;28;20241;-74
2021/10/30 11:05:26;;;;;;;11.48;9.48;;;9.10;99.90;;;;;;5031083;28;20201;-74
2021/10/30 11:08:24;;;;;;;13.02;10.52;;;9.10;99.90;;;;;;5030877;28;20201;-71
2021/10/30 11:11:08;;;;;;;11.43;9.90;;;9.20;99.90;;;;;;5030984;28;20216;-70
2021/10/30 11:13:35;;;;;;;12.38;9.80;;;9.20;99.90;;;;;;5031444;28;20209;-71
2021/10/30 11:16:04;;;;;;;12.45;10.10;;;9.20;99.90;;;;;;5030621;28;20388;-69
2021/10/30 11:18:34;;;;;;;12.45;9.82;;;9.20;99.90;;;;;;5031763;28;20213;-67
2021/10/30 11:21:15;;;;;;;12.20;9.60;;;9.20;99.90;;;;;;5031179;28;20206;-69
2021/10/30 11:23:43;;;;;;;10.25;9.25;;;9.30;99.90;;;;;;5030794;28;20206;-69
2021/10/30 11:26:12;;;;;;;11.95;9.45;;;9.30;99.90;;;;;;5030414;28;20221;-70
2021/10/30 11:28:39;;;;;;;12.25;10.05;;;9.30;99.90;;;;;;5031593;28;20201;-70
2021/10/30 11:31:14;;;;;;;11.68;9.93;;;9.40;99.90;;;;;;5030765;28;20307;-69
2021/10/30 11:33:41;;;;;;;12.65;10.43;;;9.40;99.90;;;;;;5030998;28;20197;-69
2021/10/30 11:36:10;;;;;;;10.63;9.48;;;9.50;99.90;;;;;;5030408;28;20232;-70
2021/10/30 11:38:38;;;;;;;11.70;9.23;;;9.50;99.90;;;;;;5031698;28;20312;-70
2021/10/30 11:41:07;;;;;;;11.15;9.23;;;9.50;99.90;;;;;;5030998;28;20533;-70
2021/10/30 11:43:36;;;;;;;10.38;8.60;;;9.50;99.90;;;;;;5030871;28;20213;-70
2021/10/30 11:46:05;;;;;;;12.18;9.18;;;9.50;99.90;;;;;;5030204;28;20226;-69
2021/10/30 11:48:38;;;;;;;11.25;9.98;;;9.50;99.90;;;;;;5031081;28;20202;-70
2021/10/30 11:51:07;;;;;;;10.60;9.50;;;9.50;99.90;;;;;;5030946;28;20700;-69
2021/10/30 11:53:36;;;;;;;12.70;9.60;;;9.50;99.90;;;;;;5030680;28;20205;-70
2021/10/30 11:56:08;;;;;;;14.88;9.30;;;9.50;99.90;;;;;;5025608;28;20603;-70
2021/10/30 11:58:48;;;;;;;11.30;9.57;;;9.50;99.90;;;;;;5031226;28;20212;-69
2021/10/30 12:01:23;;;;;;;11.40;9.38;;;9.50;99.90;;;;;;5030316;28;20668;-69
2021/10/30 12:04:08;;;;;;;11.88;9.10;;;9.50;99.90;;;;;;5030070;28;20208;-70
2021/10/30 12:06:37;;;;;;;13.77;8.65;;;9.40;99.90;;;;;;5029983;28;20233;-70
2021/10/30 12:09:15;;;;;;;11.98;8.27;;;9.40;99.90;;;;;;5031129;28;20205;-70
2021/10/30 12:11:42;;;;;;;10.32;8.52;;;9.40;99.90;;;;;;5030430;28;20209;-70
2021/10/30 12:14:10;;;;;;;9.60;8.00;;;9.50;99.90;;;;;;5036893;28;20201;-70
2021/10/30 12:16:37;;;;;;;15.75;8.57;;;9.40;99.90;;;;;;5029647;28;20217;-68
2021/10/30 12:19:06;;;;;;;9.10;7.60;;;9.40;99.90;;;;;;5030262;28;20206;-70
2021/10/30 12:21:34;;;;;;;10.05;8.23;;;9.40;99.90;;;;;;5029023;28;20580;-70
2021/10/30 12:24:03;;;;;;;9.38;7.80;;;9.40;99.90;;;;;;5029451;28;20268;-71
2021/10/30 12:26:32;;;;;;;12.30;8.13;;;9.40;99.90;;;;;;5029972;28;20225;-70
2021/10/30 12:29:17;;;;;;;9.13;7.20;;;9.40;99.90;;;;;;5029952;28;20650;-70
2021/10/30 12:31:59;;;;;;;8.77;7.82;;;9.50;99.90;;;;;;5030319;28;20582;-69
2021/10/30 12:34:30;;;;;;;10.05;7.80;;;9.40;99.90;;;;;;5029196;28;20229;-69
2021/10/30 12:36:58;;;;;;;8.73;7.82;;;9.40;99.90;;;;;;5029774;28;20217;-71
2021/10/30 12:39:27;;;;;;;10.25;8.43;;;9.40;99.90;;;;;;5030047;28;20202;-72
2021/10/30 12:41:55;;;;;;;8.20;7.00;;;9.50;99.90;;;;;;5030041;28;20209;-71
2021/10/30 12:44:23;;;;;;;8.75;7.90;;;9.50;99.90;;;;;;5029542;28;20695;-70
2021/10/30 12:46:56;;;;;;;11.85;8.63;;;9.60;99.90;;;;;;5028802;28;20222;-70
2021/10/30 12:49:24;;;;;;;10.50;8.18;;;9.50;99.90;;;;;;5030154;28;20225;-71
2021/10/30 12:52:05;;;;;;;9.45;8.43;;;9.60;99.90;;;;;;5029385;28;20210;-69
2021/10/30 12:54:32;;;;;;;11.93;9.27;;;9.50;99.90;;;;;;5029835;28;20224;-70
2021/10/30 12:57:00;;;;;;;11.77;8.60;;;9.60;99.90;;;;;;5028803;28;20613;-70
2021/10/30 12:59:38;;;;;;;12.57;9.50;;;9.50;99.90;;;;;;5029638;28;20213;-71